createdAt,value
2019-03-01T02:47:29.091Z,5.90
2019-03-01T05:39:00.275Z,2.40
2019-03-01T05:41:30.696Z,1.67
2019-03-01T05:44:01.850Z,1.70
2019-03-01T05:46:37.620Z,2.70
2019-03-01T05:49:23.550Z,5.07
2019-03-01T05:54:52.300Z,7.27
2019-03-01T05:57:38.504Z,9.43
2019-03-01T06:00:16.431Z,9.83
2019-03-01T06:02:56.801Z,9.23
2019-03-01T06:24:17.882Z,3.90
2019-03-01T06:27:32.604Z,2.97
2019-03-01T06:30:52.284Z,4.10
2019-03-01T06:33:43.982Z,5.77
2019-03-01T06:36:43.546Z,6.60
2019-03-01T06:39:59.604Z,5.63
2019-03-01T06:42:44.120Z,5.43
2019-03-01T06:45:30.938Z,5.90
2019-03-01T06:48:16.441Z,5.50
2019-03-01T06:50:53.479Z,4.60
2019-03-01T06:56:24.241Z,3.13
2019-03-01T06:59:00.129Z,2.67
2019-03-01T07:01:38.445Z,2.13
2019-03-01T07:04:18.310Z,2.57
2019-03-01T07:06:52.922Z,2.20
2019-03-01T07:09:39.155Z,2.37
2019-03-01T07:12:48.932Z,2.33
2019-03-01T07:15:27.453Z,2.23
2019-03-01T07:17:59.903Z,2.67
2019-03-01T07:20:37.900Z,2.90
2019-03-01T07:23:36.515Z,2.50
2019-03-01T07:26:49.997Z,2.20
2019-03-01T07:38:31.522Z,1.60
2019-03-01T07:41:07.713Z,1.80
2019-03-01T07:49:21.185Z,1.83
2019-03-01T07:52:06.240Z,2.37
2019-03-01T07:54:44.933Z,2.20
2019-03-01T07:57:19.405Z,1.93
2019-03-01T08:00:22.910Z,3.70
2019-03-01T08:03:11.831Z,3.20
2019-03-01T08:05:51.727Z,9.47
2019-03-01T08:08:22.456Z,6.50
2019-03-01T08:11:09.463Z,4.03
2019-03-01T08:13:49.414Z,3.40
2019-03-01T08:16:25.151Z,3.13
2019-03-01T08:19:01.434Z,2.93
2019-03-01T08:21:36.711Z,2.90
2019-03-01T08:24:28.209Z,1.80
2019-03-01T08:27:00.873Z,2.13
2019-03-01T08:32:51.208Z,1.47
2019-03-01T08:35:28.273Z,1.40
2019-03-01T08:38:12.332Z,1.40
2019-03-01T08:40:51.721Z,1.03
2019-03-01T08:43:35.840Z,0.90
2019-03-01T08:46:18.312Z,0.50
2019-03-01T08:48:57.684Z,0.90
2019-03-01T08:51:41.083Z,0.80
2019-03-01T08:54:26.443Z,0.90
2019-03-01T08:57:02.072Z,0.80
2019-03-01T08:59:53.205Z,0.80
2019-03-01T09:02:21.411Z,0.67
2019-03-01T09:05:10.920Z,0.80
2019-03-01T09:07:43.237Z,0.67
2019-03-01T09:10:23.059Z,0.60
2019-03-01T09:12:55.911Z,0.50
2019-03-01T09:15:33.608Z,0.50
2019-03-01T09:18:11.581Z,0.40
2019-03-01T09:20:54.388Z,0.30
2019-03-01T09:23:27.574Z,0.50
2019-03-01T09:26:10.264Z,0.33
2019-03-01T09:28:42.394Z,0.60
2019-03-01T09:31:21.902Z,0.50
2019-03-01T09:33:57.688Z,0.70
2019-03-01T09:36:35.787Z,0.37
2019-03-01T09:39:27.209Z,0.80
2019-03-01T09:42:06.284Z,0.50
2019-03-01T09:44:43.636Z,0.60
2019-03-01T09:47:19.016Z,0.60
2019-03-01T09:50:00.123Z,0.60
2019-03-01T09:52:35.603Z,0.50
2019-03-01T09:57:56.806Z,0.40
2019-03-01T10:00:34.125Z,0.40
2019-03-01T10:03:14.320Z,0.40
2019-03-01T10:05:46.024Z,0.40
2019-03-01T10:08:31.019Z,0.50
2019-03-01T10:11:06.853Z,0.40
2019-03-01T10:13:49.621Z,0.70
2019-03-01T10:16:27.629Z,0.50
2019-03-01T10:19:03.108Z,0.43
2019-03-01T10:21:36.623Z,0.50
2019-03-01T10:24:18.792Z,0.40
2019-03-01T10:26:52.564Z,0.30
2019-03-01T10:29:28.266Z,0.30
2019-03-01T10:32:00.519Z,0.33
2019-03-01T10:34:36.442Z,0.30
2019-03-01T10:37:07.780Z,0.37
2019-03-01T10:39:41.890Z,0.30
2019-03-01T10:42:14.260Z,0.40
2019-03-01T10:44:48.144Z,0.30
2019-03-01T10:47:23.008Z,0.60
2019-03-01T10:49:57.800Z,0.50
2019-03-01T10:52:38.768Z,0.23
2019-03-01T10:55:28.921Z,0.30
2019-03-01T10:58:00.960Z,0.40
2019-03-01T11:00:43.947Z,0.50
2019-03-01T11:03:22.238Z,0.40
2019-03-01T11:05:57.383Z,0.80
2019-03-01T11:20:26.653Z,0.30
2019-03-01T11:26:00.345Z,0.60
2019-03-01T11:28:34.475Z,0.50
2019-03-01T11:31:10.097Z,0.40
2019-03-01T11:33:50.534Z,1.07
2019-03-01T11:36:27.524Z,1.30
2019-03-01T11:39:03.920Z,0.87
2019-03-01T11:44:37.210Z,0.60
2019-03-01T11:47:18.215Z,0.50
2019-03-01T11:56:01.260Z,0.50
2019-03-01T11:58:44.688Z,1.17
2019-03-01T12:01:19.087Z,2.10
2019-03-01T12:04:02.756Z,1.33
2019-03-01T12:06:57.644Z,0.80
2019-03-01T12:09:41.455Z,0.40
2019-03-01T12:18:42.885Z,0.53
2019-03-01T12:21:14.335Z,0.50
2019-03-01T12:27:33.999Z,0.50
2019-03-01T12:30:17.128Z,0.50
2019-03-01T12:33:03.437Z,0.63
2019-03-01T12:41:49.918Z,0.40
2019-03-01T12:44:33.955Z,0.60
2019-03-01T12:47:27.343Z,0.60
2019-03-01T12:50:15.120Z,1.40
2019-03-01T12:52:54.118Z,0.60
2019-03-01T12:55:50.833Z,0.67
2019-03-01T13:04:36.435Z,0.50
2019-03-01T13:07:15.882Z,0.40
2019-03-01T13:10:08.432Z,0.50
2019-03-01T13:12:46.767Z,0.40
2019-03-01T13:15:24.007Z,0.57
2019-03-01T13:17:58.037Z,0.50
2019-03-01T13:20:30.064Z,0.60
2019-03-01T13:23:06.623Z,0.60
2019-03-01T13:25:48.887Z,0.40
2019-03-01T13:28:25.959Z,0.43
2019-03-01T13:31:03.775Z,0.40
2019-03-01T13:33:40.739Z,0.97
2019-03-01T13:36:18.323Z,0.70
2019-03-01T13:39:01.242Z,0.50
2019-03-01T13:41:38.015Z,0.40
2019-03-01T13:44:21.713Z,0.70
2019-03-01T13:47:01.430Z,1.50
2019-03-01T13:49:53.225Z,0.93
2019-03-01T13:52:26.649Z,0.80
2019-03-01T13:55:10.936Z,0.40
2019-03-01T13:57:49.894Z,0.40
2019-03-01T14:00:28.553Z,0.97
2019-03-01T14:03:11.690Z,0.80
2019-03-01T14:05:51.099Z,0.70
2019-03-01T14:08:32.444Z,0.60
2019-03-01T14:11:09.131Z,0.50
2019-03-01T14:13:56.996Z,0.40
2019-03-01T14:19:16.757Z,0.60
2019-03-01T14:21:54.584Z,0.83
2019-03-01T14:27:26.363Z,0.80
2019-03-01T14:30:05.410Z,0.70
2019-03-01T14:33:08.261Z,0.57
2019-03-01T14:35:59.202Z,0.50
2019-03-01T14:38:41.724Z,0.77
2019-03-01T14:41:21.458Z,0.60
2019-03-01T14:43:58.944Z,0.40
2019-03-01T14:46:39.148Z,1.77
2019-03-01T14:49:27.262Z,1.57
2019-03-01T14:59:05.396Z,0.93
2019-03-01T15:17:31.128Z,0.60
2019-03-01T15:26:41.161Z,0.40
2019-03-01T15:29:12.954Z,0.40
2019-03-01T15:44:55.659Z,0.60
2019-03-01T15:47:46.001Z,0.40
2019-03-01T15:50:29.596Z,0.40
2019-03-01T15:53:03.581Z,0.40
2019-03-01T15:55:43.620Z,0.90
2019-03-01T16:44:12.830Z,0.73
2019-03-01T16:47:03.418Z,0.83
2019-03-01T16:49:48.824Z,0.70
2019-03-01T16:52:16.163Z,0.87
2019-03-01T18:02:42.400Z,0.50
2019-03-01T18:08:31.052Z,0.60
2019-03-01T18:14:23.596Z,0.73
2019-03-01T18:16:51.690Z,0.50
2019-03-01T18:19:30.500Z,0.60
2019-03-01T18:22:06.780Z,1.10
2019-03-01T18:24:49.874Z,0.77
2019-03-01T18:53:33.766Z,0.60
2019-03-01T18:56:08.872Z,0.40
2019-03-01T18:58:40.338Z,0.40
2019-03-01T19:01:17.600Z,0.50
2019-03-01T19:04:04.211Z,0.40
2019-03-01T19:06:39.482Z,0.40
2019-03-01T19:09:16.166Z,0.67
2019-03-01T19:11:45.932Z,0.50
2019-03-01T19:14:23.219Z,0.40
2019-03-01T19:17:04.964Z,0.40
2019-03-01T19:19:38.582Z,0.20
2019-03-01T19:22:28.254Z,0.30
2019-03-01T19:25:06.498Z,0.43
2019-03-01T19:33:51.204Z,0.70
2019-03-01T19:36:31.869Z,0.70
2019-03-01T19:39:08.471Z,0.40
2019-03-01T19:41:48.693Z,0.60
2019-03-01T19:44:30.992Z,0.50
2019-03-01T19:47:23.686Z,0.70
2019-03-01T19:53:25.542Z,0.53
2019-03-01T19:56:18.957Z,0.60
2019-03-01T19:59:02.438Z,0.57
2019-03-01T20:10:42.356Z,0.40
2019-03-01T20:13:22.556Z,1.60
2019-03-01T20:16:03.063Z,1.57
2019-03-01T20:18:45.179Z,1.53
2019-03-01T20:24:33.523Z,0.90
2019-03-01T20:27:20.307Z,0.90
2019-03-01T20:36:20.249Z,0.60
2019-03-01T20:39:06.101Z,0.60
2019-03-01T20:41:48.609Z,0.80
2019-03-01T20:44:27.655Z,0.80
2019-03-01T20:50:15.659Z,0.60
2019-03-01T20:55:54.949Z,0.70
2019-03-01T21:01:27.684Z,0.60
2019-03-01T21:06:56.286Z,0.73
2019-03-01T21:12:42.868Z,0.80
2019-03-01T21:15:24.204Z,0.60
2019-03-01T21:21:07.184Z,0.50
2019-03-01T21:23:47.622Z,0.60
2019-03-01T21:29:00.500Z,0.50
2019-03-01T21:31:35.399Z,0.40
2019-03-01T21:34:14.852Z,0.53
2019-03-01T21:37:02.663Z,0.50
2019-03-01T21:42:20.207Z,0.30
2019-03-01T21:44:54.155Z,0.70
2019-03-01T21:47:25.679Z,0.50
2019-03-01T21:50:04.257Z,0.50
2019-03-01T21:52:35.842Z,0.47
2019-03-01T21:55:24.720Z,0.60
2019-03-01T21:57:51.273Z,0.47
2019-03-01T22:00:29.608Z,0.40
2019-03-01T22:03:12.209Z,0.60
2019-03-01T22:08:44.844Z,0.70
2019-03-01T22:11:25.516Z,0.60
2019-03-01T22:16:58.118Z,0.60
2019-03-01T22:19:34.488Z,0.63
2019-03-01T22:22:09.427Z,0.50
2019-03-01T22:24:42.006Z,0.50
2019-03-01T22:27:17.051Z,1.00
2019-03-01T22:29:49.820Z,1.00
2019-03-01T22:32:42.315Z,1.00
2019-03-01T22:35:16.180Z,0.93
2019-03-01T22:37:50.654Z,0.60
2019-03-01T22:40:27.880Z,0.60
2019-03-01T22:43:01.289Z,0.40
2019-03-01T22:45:45.445Z,0.33
2019-03-01T22:48:16.168Z,0.40
2019-03-01T22:50:48.543Z,0.60
2019-03-01T22:53:20.968Z,0.40
2019-03-01T22:55:53.869Z,0.30
2019-03-01T22:58:28.427Z,0.50
2019-03-01T23:01:02.276Z,0.40
2019-03-01T23:03:56.390Z,0.37
2019-03-01T23:06:26.218Z,0.37
2019-03-01T23:08:57.031Z,0.40
2019-03-01T23:11:32.513Z,0.50
2019-03-01T23:14:03.523Z,0.50
2019-03-01T23:16:35.603Z,0.90
2019-03-01T23:19:08.245Z,0.60
2019-03-01T23:21:39.355Z,0.80
2019-03-01T23:24:09.364Z,0.50
2019-03-01T23:26:40.959Z,0.40
2019-03-01T23:29:11.869Z,0.27
2019-03-01T23:31:43.377Z,0.20
2019-03-01T23:34:16.690Z,0.30
2019-03-01T23:36:48.767Z,0.73
2019-03-01T23:39:21.647Z,0.90
2019-03-01T23:41:54.554Z,0.90
2019-03-01T23:44:25.993Z,0.70
2019-03-01T23:46:59.542Z,0.70
2019-03-01T23:49:29.812Z,0.53
2019-03-01T23:51:59.685Z,0.40
2019-03-01T23:54:32.357Z,0.40
2019-03-01T23:57:06.864Z,0.53
2019-03-01T23:59:39.570Z,0.50
